sensor_id;sensor_type;location;lat;lon;timestamp;P1;durP1;ratioP1;P2;durP2;ratioP2
56927;SDS011;60850;52.502;13.426;2024-02-21T00:00:02;15.18;;;5.15;;
56927;SDS011;60850;52.502;13.426;2024-02-21T00:02:30;11.73;;;4.85;;
56927;SDS011;60850;52.502;13.426;2024-02-21T00:04:57;14.35;;;4.80;;
56927;SDS011;60850;52.502;13.426;2024-02-21T00:07:24;17.48;;;4.85;;
56927;SDS011;60850;52.502;13.426;2024-02-21T00:09:53;19.20;;;5.47;;
56927;SDS011;60850;52.502;13.426;2024-02-21T00:12:20;23.40;;;5.28;;
56927;SDS011;60850;52.502;13.426;2024-02-21T00:14:47;19.88;;;5.20;;
56927;SDS011;60850;52.502;13.426;2024-02-21T00:17:14;12.35;;;4.85;;
56927;SDS011;60850;52.502;13.426;2024-02-21T00:19:41;18.20;;;5.13;;
56927;SDS011;60850;52.502;13.426;2024-02-21T00:22:08;17.02;;;4.50;;
56927;SDS011;60850;52.502;13.426;2024-02-21T00:24:35;17.50;;;5.50;;
56927;SDS011;60850;52.502;13.426;2024-02-21T00:27:03;12.57;;;3.97;;
56927;SDS011;60850;52.502;13.426;2024-02-21T00:29:31;14.18;;;4.38;;
56927;SDS011;60850;52.502;13.426;2024-02-21T00:31:59;15.68;;;5.30;;
56927;SDS011;60850;52.502;13.426;2024-02-21T00:34:26;14.90;;;4.25;;
56927;SDS011;60850;52.502;13.426;2024-02-21T00:36:53;22.02;;;5.30;;
56927;SDS011;60850;52.502;13.426;2024-02-21T00:39:20;12.55;;;4.03;;
56927;SDS011;60850;52.502;13.426;2024-02-21T00:41:47;19.50;;;4.47;;
56927;SDS011;60850;52.502;13.426;2024-02-21T00:44:16;14.52;;;3.80;;
56927;SDS011;60850;52.502;13.426;2024-02-21T00:46:43;17.95;;;4.15;;
56927;SDS011;60850;52.502;13.426;2024-02-21T00:49:10;11.48;;;3.92;;
56927;SDS011;60850;52.502;13.426;2024-02-21T00:51:37;13.43;;;4.60;;
56927;SDS011;60850;52.502;13.426;2024-02-21T00:54:04;15.60;;;3.70;;
56927;SDS011;60850;52.502;13.426;2024-02-21T00:56:31;12.07;;;4.47;;
56927;SDS011;60850;52.502;13.426;2024-02-21T00:58:58;16.92;;;4.30;;
56927;SDS011;60850;52.502;13.426;2024-02-21T01:01:27;19.48;;;4.20;;
56927;SDS011;60850;52.502;13.426;2024-02-21T01:03:54;17.55;;;3.65;;
56927;SDS011;60850;52.502;13.426;2024-02-21T01:06:20;11.77;;;4.38;;
56927;SDS011;60850;52.502;13.426;2024-02-21T01:08:49;17.48;;;5.20;;
56927;SDS011;60850;52.502;13.426;2024-02-21T01:11:16;14.80;;;3.72;;
56927;SDS011;60850;52.502;13.426;2024-02-21T01:13:43;16.00;;;3.80;;
56927;SDS011;60850;52.502;13.426;2024-02-21T01:16:10;16.52;;;4.38;;
56927;SDS011;60850;52.502;13.426;2024-02-21T01:18:39;13.90;;;3.60;;
56927;SDS011;60850;52.502;13.426;2024-02-21T01:21:06;17.35;;;3.85;;
56927;SDS011;60850;52.502;13.426;2024-02-21T01:23:34;11.93;;;3.88;;
56927;SDS011;60850;52.502;13.426;2024-02-21T01:26:01;13.52;;;3.50;;
56927;SDS011;60850;52.502;13.426;2024-02-21T01:28:29;13.15;;;4.00;;
56927;SDS011;60850;52.502;13.426;2024-02-21T01:30:56;13.95;;;4.18;;
56927;SDS011;60850;52.502;13.426;2024-02-21T01:33:23;12.68;;;3.35;;
56927;SDS011;60850;52.502;13.426;2024-02-21T01:35:51;17.35;;;3.85;;
56927;SDS011;60850;52.502;13.426;2024-02-21T01:38:18;11.30;;;3.40;;
56927;SDS011;60850;52.502;13.426;2024-02-21T01:40:46;19.55;;;3.78;;
56927;SDS011;60850;52.502;13.426;2024-02-21T01:43:17;12.23;;;3.10;;
56927;SDS011;60850;52.502;13.426;2024-02-21T01:45:45;17.15;;;3.78;;
56927;SDS011;60850;52.502;13.426;2024-02-21T01:48:16;12.93;;;3.78;;
56927;SDS011;60850;52.502;13.426;2024-02-21T01:50:43;16.27;;;3.95;;
56927;SDS011;60850;52.502;13.426;2024-02-21T01:53:13;14.65;;;4.03;;
56927;SDS011;60850;52.502;13.426;2024-02-21T01:55:44;11.73;;;3.60;;
56927;SDS011;60850;52.502;13.426;2024-02-21T01:58:11;14.27;;;4.10;;
56927;SDS011;60850;52.502;13.426;2024-02-21T02:00:39;13.20;;;3.45;;
56927;SDS011;60850;52.502;13.426;2024-02-21T02:03:09;14.05;;;3.95;;
56927;SDS011;60850;52.502;13.426;2024-02-21T02:05:43;16.10;;;3.78;;
56927;SDS011;60850;52.502;13.426;2024-02-21T02:08:11;10.25;;;3.60;;
56927;SDS011;60850;52.502;13.426;2024-02-21T02:10:40;14.82;;;4.47;;
56927;SDS011;60850;52.502;13.426;2024-02-21T02:13:08;13.50;;;3.72;;
56927;SDS011;60850;52.502;13.426;2024-02-21T02:15:39;12.48;;;3.90;;
56927;SDS011;60850;52.502;13.426;2024-02-21T02:18:06;18.90;;;3.65;;
56927;SDS011;60850;52.502;13.426;2024-02-21T02:20:33;16.02;;;4.25;;
56927;SDS011;60850;52.502;13.426;2024-02-21T02:23:02;20.42;;;4.30;;
56927;SDS011;60850;52.502;13.426;2024-02-21T02:25:35;14.05;;;4.68;;
56927;SDS011;60850;52.502;13.426;2024-02-21T02:28:02;14.88;;;3.67;;
56927;SDS011;60850;52.502;13.426;2024-02-21T02:30:31;13.48;;;3.42;;
56927;SDS011;60850;52.502;13.426;2024-02-21T02:32:59;18.95;;;3.95;;
56927;SDS011;60850;52.502;13.426;2024-02-21T02:35:26;16.95;;;4.15;;
56927;SDS011;60850;52.502;13.426;2024-02-21T02:37:53;15.27;;;3.80;;
56927;SDS011;60850;52.502;13.426;2024-02-21T02:40:20;18.48;;;3.22;;
56927;SDS011;60850;52.502;13.426;2024-02-21T02:42:49;16.85;;;3.40;;
56927;SDS011;60850;52.502;13.426;2024-02-21T02:45:16;14.25;;;3.95;;
56927;SDS011;60850;52.502;13.426;2024-02-21T02:47:44;16.13;;;4.18;;
56927;SDS011;60850;52.502;13.426;2024-02-21T02:50:11;10.48;;;4.13;;
56927;SDS011;60850;52.502;13.426;2024-02-21T02:52:39;16.08;;;4.18;;
56927;SDS011;60850;52.502;13.426;2024-02-21T02:55:06;12.70;;;4.40;;
56927;SDS011;60850;52.502;13.426;2024-02-21T02:57:34;9.63;;;3.67;;
56927;SDS011;60850;52.502;13.426;2024-02-21T03:00:02;14.68;;;3.33;;
56927;SDS011;60850;52.502;13.426;2024-02-21T03:02:32;15.68;;;3.97;;
56927;SDS011;60850;52.502;13.426;2024-02-21T03:04:59;12.48;;;3.75;;
56927;SDS011;60850;52.502;13.426;2024-02-21T03:07:26;13.70;;;4.65;;
56927;SDS011;60850;52.502;13.426;2024-02-21T03:09:53;13.80;;;4.25;;
56927;SDS011;60850;52.502;13.426;2024-02-21T03:12:20;15.95;;;4.22;;
56927;SDS011;60850;52.502;13.426;2024-02-21T03:14:53;12.88;;;3.83;;
56927;SDS011;60850;52.502;13.426;2024-02-21T03:17:22;16.13;;;4.97;;
56927;SDS011;60850;52.502;13.426;2024-02-21T03:19:48;11.40;;;3.83;;
56927;SDS011;60850;52.502;13.426;2024-02-21T03:22:16;16.17;;;4.57;;
56927;SDS011;60850;52.502;13.426;2024-02-21T03:24:43;13.43;;;4.68;;
56927;SDS011;60850;52.502;13.426;2024-02-21T03:27:11;17.92;;;4.65;;
56927;SDS011;60850;52.502;13.426;2024-02-21T03:29:38;16.10;;;4.97;;
56927;SDS011;60850;52.502;13.426;2024-02-21T03:32:05;13.98;;;4.50;;
56927;SDS011;60850;52.502;13.426;2024-02-21T03:34:33;17.38;;;5.00;;
56927;SDS011;60850;52.502;13.426;2024-02-21T03:37:00;15.10;;;4.30;;
56927;SDS011;60850;52.502;13.426;2024-02-21T03:39:30;11.95;;;4.50;;
56927;SDS011;60850;52.502;13.426;2024-02-21T03:41:58;16.02;;;4.03;;
56927;SDS011;60850;52.502;13.426;2024-02-21T03:44:25;15.60;;;4.72;;
56927;SDS011;60850;52.502;13.426;2024-02-21T03:46:53;17.50;;;3.90;;
56927;SDS011;60850;52.502;13.426;2024-02-21T03:49:20;14.85;;;4.78;;
56927;SDS011;60850;52.502;13.426;2024-02-21T03:51:49;15.60;;;5.07;;
56927;SDS011;60850;52.502;13.426;2024-02-21T03:54:16;12.88;;;4.18;;
56927;SDS011;60850;52.502;13.426;2024-02-21T03:56:43;11.60;;;4.57;;
56927;SDS011;60850;52.502;13.426;2024-02-21T03:59:10;15.55;;;5.47;;
56927;SDS011;60850;52.502;13.426;2024-02-21T04:01:37;19.50;;;5.00;;
56927;SDS011;60850;52.502;13.426;2024-02-21T04:04:04;10.55;;;4.57;;
56927;SDS011;60850;52.502;13.426;2024-02-21T04:06:32;13.20;;;4.57;;
56927;SDS011;60850;52.502;13.426;2024-02-21T04:09:00;18.65;;;5.22;;
56927;SDS011;60850;52.502;13.426;2024-02-21T04:11:27;12.05;;;4.63;;
56927;SDS011;60850;52.502;13.426;2024-02-21T04:13:54;9.30;;;4.38;;
56927;SDS011;60850;52.502;13.426;2024-02-21T04:16:21;20.00;;;5.15;;
56927;SDS011;60850;52.502;13.426;2024-02-21T04:18:48;13.43;;;4.80;;
56927;SDS011;60850;52.502;13.426;2024-02-21T04:21:16;12.65;;;4.43;;
56927;SDS011;60850;52.502;13.426;2024-02-21T04:23:43;9.38;;;3.97;;
56927;SDS011;60850;52.502;13.426;2024-02-21T04:26:12;15.05;;;4.85;;
56927;SDS011;60850;52.502;13.426;2024-02-21T04:28:39;15.23;;;4.47;;
56927;SDS011;60850;52.502;13.426;2024-02-21T04:31:06;16.75;;;4.82;;
56927;SDS011;60850;52.502;13.426;2024-02-21T04:33:33;12.18;;;4.50;;
56927;SDS011;60850;52.502;13.426;2024-02-21T04:36:00;11.40;;;4.53;;
56927;SDS011;60850;52.502;13.426;2024-02-21T04:38:27;10.68;;;4.38;;
56927;SDS011;60850;52.502;13.426;2024-02-21T04:40:54;19.73;;;5.18;;
56927;SDS011;60850;52.502;13.426;2024-02-21T04:43:26;12.32;;;4.70;;
56927;SDS011;60850;52.502;13.426;2024-02-21T04:45:53;16.33;;;6.28;;
56927;SDS011;60850;52.502;13.426;2024-02-21T04:48:20;15.30;;;5.05;;
56927;SDS011;60850;52.502;13.426;2024-02-21T04:50:47;14.20;;;4.93;;
56927;SDS011;60850;52.502;13.426;2024-02-21T04:53:14;14.73;;;4.88;;
56927;SDS011;60850;52.502;13.426;2024-02-21T04:55:41;17.85;;;3.97;;
56927;SDS011;60850;52.502;13.426;2024-02-21T04:58:08;16.23;;;4.68;;
56927;SDS011;60850;52.502;13.426;2024-02-21T05:00:37;14.13;;;4.95;;
56927;SDS011;60850;52.502;13.426;2024-02-21T05:03:04;16.35;;;4.40;;
56927;SDS011;60850;52.502;13.426;2024-02-21T05:05:31;16.27;;;4.57;;
56927;SDS011;60850;52.502;13.426;2024-02-21T05:07:58;13.52;;;4.07;;
56927;SDS011;60850;52.502;13.426;2024-02-21T05:10:25;17.50;;;5.30;;
56927;SDS011;60850;52.502;13.426;2024-02-21T05:12:52;12.50;;;5.45;;
56927;SDS011;60850;52.502;13.426;2024-02-21T05:15:19;13.77;;;5.07;;
56927;SDS011;60850;52.502;13.426;2024-02-21T05:17:48;14.95;;;4.40;;
56927;SDS011;60850;52.502;13.426;2024-02-21T05:20:15;19.00;;;5.47;;
56927;SDS011;60850;52.502;13.426;2024-02-21T05:22:42;20.75;;;4.82;;
56927;SDS011;60850;52.502;13.426;2024-02-21T05:25:09;16.65;;;5.25;;
56927;SDS011;60850;52.502;13.426;2024-02-21T05:27:36;16.85;;;5.40;;
56927;SDS011;60850;52.502;13.426;2024-02-21T05:30:04;16.60;;;5.40;;
56927;SDS011;60850;52.502;13.426;2024-02-21T05:32:32;17.50;;;6.00;;
56927;SDS011;60850;52.502;13.426;2024-02-21T05:35:01;17.10;;;6.03;;
56927;SDS011;60850;52.502;13.426;2024-02-21T05:37:28;17.60;;;5.50;;
56927;SDS011;60850;52.502;13.426;2024-02-21T05:39:55;17.42;;;5.78;;
56927;SDS011;60850;52.502;13.426;2024-02-21T05:42:22;17.73;;;5.35;;
56927;SDS011;60850;52.502;13.426;2024-02-21T05:44:49;16.88;;;4.88;;
56927;SDS011;60850;52.502;13.426;2024-02-21T05:47:16;13.90;;;4.78;;
56927;SDS011;60850;52.502;13.426;2024-02-21T05:49:46;16.20;;;5.10;;
56927;SDS011;60850;52.502;13.426;2024-02-21T05:52:14;14.27;;;5.57;;
56927;SDS011;60850;52.502;13.426;2024-02-21T05:54:42;18.92;;;6.50;;
56927;SDS011;60850;52.502;13.426;2024-02-21T05:57:09;15.10;;;5.15;;
56927;SDS011;60850;52.502;13.426;2024-02-21T05:59:37;16.55;;;5.50;;
56927;SDS011;60850;52.502;13.426;2024-02-21T06:02:05;14.93;;;5.53;;
56927;SDS011;60850;52.502;13.426;2024-02-21T06:04:32;14.77;;;4.38;;
56927;SDS011;60850;52.502;13.426;2024-02-21T06:06:59;15.10;;;5.45;;
56927;SDS011;60850;52.502;13.426;2024-02-21T06:09:28;17.45;;;5.65;;
56927;SDS011;60850;52.502;13.426;2024-02-21T06:11:55;16.98;;;5.45;;
56927;SDS011;60850;52.502;13.426;2024-02-21T06:14:22;15.25;;;5.72;;
56927;SDS011;60850;52.502;13.426;2024-02-21T06:16:49;14.57;;;5.68;;
56927;SDS011;60850;52.502;13.426;2024-02-21T06:19:16;13.55;;;5.03;;
56927;SDS011;60850;52.502;13.426;2024-02-21T06:21:43;17.65;;;6.00;;
56927;SDS011;60850;52.502;13.426;2024-02-21T06:24:10;16.98;;;4.97;;
56927;SDS011;60850;52.502;13.426;2024-02-21T06:26:39;12.70;;;5.38;;
56927;SDS011;60850;52.502;13.426;2024-02-21T06:29:07;15.15;;;5.53;;
56927;SDS011;60850;52.502;13.426;2024-02-21T06:31:35;20.65;;;5.85;;
56927;SDS011;60850;52.502;13.426;2024-02-21T06:34:02;17.27;;;6.30;;
56927;SDS011;60850;52.502;13.426;2024-02-21T06:36:29;17.38;;;5.80;;
56927;SDS011;60850;52.502;13.426;2024-02-21T06:38:58;18.45;;;5.93;;
56927;SDS011;60850;52.502;13.426;2024-02-21T06:41:25;14.90;;;5.47;;
56927;SDS011;60850;52.502;13.426;2024-02-21T06:43:54;20.50;;;5.70;;
56927;SDS011;60850;52.502;13.426;2024-02-21T06:46:24;10.82;;;5.20;;
56927;SDS011;60850;52.502;13.426;2024-02-21T06:48:51;25.67;;;6.68;;
56927;SDS011;60850;52.502;13.426;2024-02-21T06:51:18;17.58;;;6.35;;
56927;SDS011;60850;52.502;13.426;2024-02-21T06:53:45;18.60;;;6.45;;
56927;SDS011;60850;52.502;13.426;2024-02-21T06:56:12;14.00;;;5.50;;
56927;SDS011;60850;52.502;13.426;2024-02-21T06:58:40;15.60;;;6.65;;
56927;SDS011;60850;52.502;13.426;2024-02-21T07:01:08;18.75;;;6.47;;
56927;SDS011;60850;52.502;13.426;2024-02-21T07:03:35;17.80;;;6.18;;
56927;SDS011;60850;52.502;13.426;2024-02-21T07:06:02;19.17;;;5.78;;
56927;SDS011;60850;52.502;13.426;2024-02-21T07:08:30;16.08;;;6.00;;
56927;SDS011;60850;52.502;13.426;2024-02-21T07:10:57;23.15;;;7.20;;
56927;SDS011;60850;52.502;13.426;2024-02-21T07:13:24;16.63;;;6.05;;
56927;SDS011;60850;52.502;13.426;2024-02-21T07:15:51;20.23;;;6.63;;
56927;SDS011;60850;52.502;13.426;2024-02-21T07:18:19;16.92;;;5.50;;
56927;SDS011;60850;52.502;13.426;2024-02-21T07:20:46;16.05;;;5.68;;
56927;SDS011;60850;52.502;13.426;2024-02-21T07:23:14;13.77;;;4.93;;
56927;SDS011;60850;52.502;13.426;2024-02-21T07:25:40;18.80;;;6.85;;
56927;SDS011;60850;52.502;13.426;2024-02-21T07:28:08;15.48;;;6.20;;
56927;SDS011;60850;52.502;13.426;2024-02-21T07:30:34;15.45;;;5.63;;
56927;SDS011;60850;52.502;13.426;2024-02-21T07:33:02;16.48;;;5.72;;
56927;SDS011;60850;52.502;13.426;2024-02-21T07:35:31;16.40;;;6.70;;
56927;SDS011;60850;52.502;13.426;2024-02-21T07:37:58;15.50;;;5.60;;
56927;SDS011;60850;52.502;13.426;2024-02-21T07:40:25;16.05;;;6.53;;
56927;SDS011;60850;52.502;13.426;2024-02-21T07:42:52;14.07;;;5.55;;
56927;SDS011;60850;52.502;13.426;2024-02-21T07:45:19;13.90;;;6.05;;
56927;SDS011;60850;52.502;13.426;2024-02-21T07:47:49;16.77;;;5.40;;
56927;SDS011;60850;52.502;13.426;2024-02-21T07:50:16;13.63;;;4.95;;
56927;SDS011;60850;52.502;13.426;2024-02-21T07:52:45;16.90;;;5.40;;
56927;SDS011;60850;52.502;13.426;2024-02-21T07:55:12;15.88;;;6.47;;
56927;SDS011;60850;52.502;13.426;2024-02-21T07:57:39;21.27;;;6.25;;
56927;SDS011;60850;52.502;13.426;2024-02-21T08:00:06;13.43;;;5.68;;
56927;SDS011;60850;52.502;13.426;2024-02-21T08:02:35;17.20;;;5.95;;
56927;SDS011;60850;52.502;13.426;2024-02-21T08:05:03;21.40;;;6.18;;
56927;SDS011;60850;52.502;13.426;2024-02-21T08:07:30;15.63;;;6.18;;
56927;SDS011;60850;52.502;13.426;2024-02-21T08:09:58;15.32;;;5.82;;
56927;SDS011;60850;52.502;13.426;2024-02-21T08:12:26;17.33;;;5.60;;
56927;SDS011;60850;52.502;13.426;2024-02-21T08:14:53;12.07;;;4.90;;
56927;SDS011;60850;52.502;13.426;2024-02-21T08:17:20;17.88;;;5.82;;
56927;SDS011;60850;52.502;13.426;2024-02-21T08:19:47;17.10;;;5.72;;
56927;SDS011;60850;52.502;13.426;2024-02-21T08:22:15;17.63;;;6.45;;
56927;SDS011;60850;52.502;13.426;2024-02-21T08:24:42;17.50;;;6.00;;
56927;SDS011;60850;52.502;13.426;2024-02-21T08:27:10;17.88;;;6.03;;
56927;SDS011;60850;52.502;13.426;2024-02-21T08:29:37;12.90;;;5.57;;
56927;SDS011;60850;52.502;13.426;2024-02-21T08:32:04;17.17;;;5.90;;
56927;SDS011;60850;52.502;13.426;2024-02-21T08:34:31;15.18;;;6.03;;
56927;SDS011;60850;52.502;13.426;2024-02-21T08:36:59;15.88;;;6.13;;
56927;SDS011;60850;52.502;13.426;2024-02-21T08:39:26;14.00;;;5.07;;
56927;SDS011;60850;52.502;13.426;2024-02-21T08:41:55;14.32;;;5.93;;
56927;SDS011;60850;52.502;13.426;2024-02-21T08:44:24;15.68;;;5.38;;
56927;SDS011;60850;52.502;13.426;2024-02-21T08:46:52;17.27;;;5.88;;
56927;SDS011;60850;52.502;13.426;2024-02-21T08:49:19;19.98;;;6.45;;
56927;SDS011;60850;52.502;13.426;2024-02-21T08:51:46;15.18;;;6.07;;
56927;SDS011;60850;52.502;13.426;2024-02-21T08:54:13;17.40;;;6.00;;
56927;SDS011;60850;52.502;13.426;2024-02-21T08:56:40;15.98;;;6.22;;
56927;SDS011;60850;52.502;13.426;2024-02-21T08:59:07;18.52;;;6.75;;
56927;SDS011;60850;52.502;13.426;2024-02-21T09:01:36;10.43;;;4.93;;
56927;SDS011;60850;52.502;13.426;2024-02-21T09:04:03;16.25;;;7.00;;
56927;SDS011;60850;52.502;13.426;2024-02-21T09:06:30;17.77;;;7.18;;
56927;SDS011;60850;52.502;13.426;2024-02-21T09:08:58;14.55;;;5.85;;
56927;SDS011;60850;52.502;13.426;2024-02-21T09:11:26;17.83;;;6.38;;
56927;SDS011;60850;52.502;13.426;2024-02-21T09:13:53;18.90;;;5.93;;
56927;SDS011;60850;52.502;13.426;2024-02-21T09:16:21;16.00;;;7.18;;
56927;SDS011;60850;52.502;13.426;2024-02-21T09:18:49;18.00;;;6.75;;
56927;SDS011;60850;52.502;13.426;2024-02-21T09:21:18;20.75;;;7.07;;
56927;SDS011;60850;52.502;13.426;2024-02-21T09:23:45;15.63;;;7.72;;
56927;SDS011;60850;52.502;13.426;2024-02-21T09:26:12;22.08;;;8.45;;
56927;SDS011;60850;52.502;13.426;2024-02-21T09:28:41;17.63;;;7.72;;
56927;SDS011;60850;52.502;13.426;2024-02-21T09:31:09;18.92;;;7.75;;
56927;SDS011;60850;52.502;13.426;2024-02-21T09:33:35;23.17;;;7.97;;
56927;SDS011;60850;52.502;13.426;2024-02-21T09:36:06;15.65;;;7.50;;
56927;SDS011;60850;52.502;13.426;2024-02-21T09:38:33;20.17;;;8.95;;
56927;SDS011;60850;52.502;13.426;2024-02-21T09:41:04;17.05;;;7.45;;
56927;SDS011;60850;52.502;13.426;2024-02-21T09:43:41;15.15;;;7.38;;
56927;SDS011;60850;52.502;13.426;2024-02-21T09:46:08;15.27;;;6.95;;
56927;SDS011;60850;52.502;13.426;2024-02-21T09:48:44;17.02;;;7.25;;
56927;SDS011;60850;52.502;13.426;2024-02-21T09:51:28;22.15;;;7.97;;
56927;SDS011;60850;52.502;13.426;2024-02-21T09:53:57;17.20;;;7.50;;
56927;SDS011;60850;52.502;13.426;2024-02-21T09:56:26;15.75;;;7.07;;
56927;SDS011;60850;52.502;13.426;2024-02-21T09:58:53;16.50;;;7.53;;
56927;SDS011;60850;52.502;13.426;2024-02-21T10:01:20;18.58;;;7.25;;
56927;SDS011;60850;52.502;13.426;2024-02-21T10:03:47;14.63;;;7.38;;
56927;SDS011;60850;52.502;13.426;2024-02-21T10:06:15;13.02;;;6.72;;
56927;SDS011;60850;52.502;13.426;2024-02-21T10:08:43;14.68;;;7.72;;
56927;SDS011;60850;52.502;13.426;2024-02-21T10:11:10;19.98;;;7.82;;
56927;SDS011;60850;52.502;13.426;2024-02-21T10:13:37;14.30;;;7.18;;
56927;SDS011;60850;52.502;13.426;2024-02-21T10:16:05;16.38;;;6.55;;
56927;SDS011;60850;52.502;13.426;2024-02-21T10:18:33;15.77;;;7.72;;
56927;SDS011;60850;52.502;13.426;2024-02-21T10:21:02;14.05;;;6.30;;
56927;SDS011;60850;52.502;13.426;2024-02-21T10:23:40;18.08;;;6.38;;
56927;SDS011;60850;52.502;13.426;2024-02-21T10:26:10;18.10;;;7.75;;
56927;SDS011;60850;52.502;13.426;2024-02-21T10:28:37;19.38;;;7.15;;
56927;SDS011;60850;52.502;13.426;2024-02-21T10:31:07;19.35;;;7.78;;
56927;SDS011;60850;52.502;13.426;2024-02-21T10:33:38;15.40;;;7.18;;
56927;SDS011;60850;52.502;13.426;2024-02-21T10:36:06;15.50;;;6.78;;
56927;SDS011;60850;52.502;13.426;2024-02-21T10:38:34;13.13;;;6.15;;
56927;SDS011;60850;52.502;13.426;2024-02-21T10:41:06;14.18;;;6.28;;
56927;SDS011;60850;52.502;13.426;2024-02-21T10:43:38;14.00;;;7.03;;
56927;SDS011;60850;52.502;13.426;2024-02-21T10:46:07;15.07;;;6.25;;
56927;SDS011;60850;52.502;13.426;2024-02-21T10:48:41;16.38;;;6.53;;
56927;SDS011;60850;52.502;13.426;2024-02-21T10:51:16;21.58;;;7.18;;
56927;SDS011;60850;52.502;13.426;2024-02-21T10:53:45;18.33;;;7.63;;
56927;SDS011;60850;52.502;13.426;2024-02-21T10:56:25;14.27;;;6.55;;
56927;SDS011;60850;52.502;13.426;2024-02-21T10:58:55;16.25;;;6.53;;
56927;SDS011;60850;52.502;13.426;2024-02-21T11:01:24;15.90;;;6.82;;
56927;SDS011;60850;52.502;13.426;2024-02-21T11:03:57;13.48;;;6.20;;
56927;SDS011;60850;52.502;13.426;2024-02-21T11:06:27;12.38;;;6.18;;
56927;SDS011;60850;52.502;13.426;2024-02-21T11:08:59;15.07;;;6.60;;
56927;SDS011;60850;52.502;13.426;2024-02-21T11:11:29;16.10;;;6.38;;
56927;SDS011;60850;52.502;13.426;2024-02-21T11:14:06;12.52;;;6.15;;
56927;SDS011;60850;52.502;13.426;2024-02-21T11:16:37;14.55;;;6.25;;
56927;SDS011;60850;52.502;13.426;2024-02-21T11:19:06;13.45;;;6.60;;
56927;SDS011;60850;52.502;13.426;2024-02-21T11:21:34;15.55;;;7.00;;
56927;SDS011;60850;52.502;13.426;2024-02-21T11:24:01;20.33;;;6.85;;
56927;SDS011;60850;52.502;13.426;2024-02-21T11:26:30;14.00;;;6.43;;
56927;SDS011;60850;52.502;13.426;2024-02-21T11:28:58;14.43;;;6.75;;
56927;SDS011;60850;52.502;13.426;2024-02-21T11:31:26;13.35;;;6.85;;
56927;SDS011;60850;52.502;13.426;2024-02-21T11:33:53;12.77;;;6.45;;
56927;SDS011;60850;52.502;13.426;2024-02-21T11:36:25;15.32;;;6.00;;
56927;SDS011;60850;52.502;13.426;2024-02-21T11:38:52;9.30;;;4.80;;
56927;SDS011;60850;52.502;13.426;2024-02-21T11:41:19;13.35;;;5.22;;
56927;SDS011;60850;52.502;13.426;2024-02-21T11:43:49;9.48;;;5.20;;
56927;SDS011;60850;52.502;13.426;2024-02-21T11:46:17;12.52;;;5.57;;
56927;SDS011;60850;52.502;13.426;2024-02-21T11:48:45;10.73;;;5.50;;
56927;SDS011;60850;52.502;13.426;2024-02-21T11:51:22;12.95;;;5.72;;
56927;SDS011;60850;52.502;13.426;2024-02-21T11:53:52;11.02;;;5.45;;
56927;SDS011;60850;52.502;13.426;2024-02-21T11:56:19;10.20;;;5.40;;
56927;SDS011;60850;52.502;13.426;2024-02-21T11:58:48;11.48;;;6.07;;
56927;SDS011;60850;52.502;13.426;2024-02-21T12:01:16;9.88;;;5.10;;
56927;SDS011;60850;52.502;13.426;2024-02-21T12:03:43;11.02;;;4.68;;
56927;SDS011;60850;52.502;13.426;2024-02-21T12:06:15;9.00;;;4.45;;
56927;SDS011;60850;52.502;13.426;2024-02-21T12:08:46;8.02;;;3.92;;
56927;SDS011;60850;52.502;13.426;2024-02-21T12:11:18;10.18;;;4.13;;
56927;SDS011;60850;52.502;13.426;2024-02-21T12:13:46;10.55;;;3.92;;
56927;SDS011;60850;52.502;13.426;2024-02-21T12:16:16;8.27;;;4.05;;
56927;SDS011;60850;52.502;13.426;2024-02-21T12:18:44;10.85;;;4.15;;
56927;SDS011;60850;52.502;13.426;2024-02-21T12:21:11;10.55;;;4.35;;
56927;SDS011;60850;52.502;13.426;2024-02-21T12:23:39;10.40;;;4.25;;
56927;SDS011;60850;52.502;13.426;2024-02-21T12:26:06;9.35;;;4.47;;
56927;SDS011;60850;52.502;13.426;2024-02-21T12:28:33;5.55;;;3.92;;
56927;SDS011;60850;52.502;13.426;2024-02-21T12:31:00;6.53;;;3.83;;
56927;SDS011;60850;52.502;13.426;2024-02-21T12:33:31;8.30;;;4.13;;
56927;SDS011;60850;52.502;13.426;2024-02-21T12:35:58;9.10;;;4.45;;
56927;SDS011;60850;52.502;13.426;2024-02-21T12:38:25;9.27;;;4.22;;
56927;SDS011;60850;52.502;13.426;2024-02-21T12:40:52;10.57;;;4.53;;
56927;SDS011;60850;52.502;13.426;2024-02-21T12:43:19;5.68;;;3.70;;
56927;SDS011;60850;52.502;13.426;2024-02-21T12:45:48;8.40;;;3.22;;
56927;SDS011;60850;52.502;13.426;2024-02-21T12:48:15;7.20;;;3.85;;
56927;SDS011;60850;52.502;13.426;2024-02-21T12:50:44;7.65;;;4.05;;
56927;SDS011;60850;52.502;13.426;2024-02-21T12:53:16;9.02;;;3.50;;
56927;SDS011;60850;52.502;13.426;2024-02-21T12:55:44;6.43;;;3.58;;
56927;SDS011;60850;52.502;13.426;2024-02-21T12:58:11;8.27;;;4.20;;
56927;SDS011;60850;52.502;13.426;2024-02-21T13:00:39;9.43;;;4.40;;
56927;SDS011;60850;52.502;13.426;2024-02-21T13:03:09;7.43;;;3.72;;
56927;SDS011;60850;52.502;13.426;2024-02-21T13:05:37;10.55;;;4.20;;
56927;SDS011;60850;52.502;13.426;2024-02-21T13:08:05;8.63;;;3.70;;
56927;SDS011;60850;52.502;13.426;2024-02-21T13:10:33;6.10;;;3.50;;
56927;SDS011;60850;52.502;13.426;2024-02-21T13:13:00;6.38;;;3.20;;
56927;SDS011;60850;52.502;13.426;2024-02-21T13:15:27;7.95;;;3.65;;
56927;SDS011;60850;52.502;13.426;2024-02-21T13:17:55;10.15;;;3.65;;
56927;SDS011;60850;52.502;13.426;2024-02-21T13:20:22;6.85;;;3.22;;
56927;SDS011;60850;52.502;13.426;2024-02-21T13:22:49;10.45;;;3.50;;
56927;SDS011;60850;52.502;13.426;2024-02-21T13:25:18;9.48;;;3.80;;
56927;SDS011;60850;52.502;13.426;2024-02-21T13:27:46;9.02;;;3.60;;
56927;SDS011;60850;52.502;13.426;2024-02-21T13:30:17;8.07;;;3.30;;
56927;SDS011;60850;52.502;13.426;2024-02-21T13:32:44;7.03;;;3.75;;
56927;SDS011;60850;52.502;13.426;2024-02-21T13:35:13;9.80;;;3.55;;
56927;SDS011;60850;52.502;13.426;2024-02-21T13:37:40;8.85;;;3.30;;
56927;SDS011;60850;52.502;13.426;2024-02-21T13:40:08;7.53;;;3.40;;
56927;SDS011;60850;52.502;13.426;2024-02-21T13:42:39;9.93;;;3.90;;
56927;SDS011;60850;52.502;13.426;2024-02-21T13:45:07;9.40;;;3.58;;
56927;SDS011;60850;52.502;13.426;2024-02-21T13:47:34;10.15;;;3.72;;
56927;SDS011;60850;52.502;13.426;2024-02-21T13:50:04;9.23;;;3.40;;
56927;SDS011;60850;52.502;13.426;2024-02-21T13:52:34;8.25;;;3.80;;
56927;SDS011;60850;52.502;13.426;2024-02-21T13:55:01;12.10;;;3.92;;
56927;SDS011;60850;52.502;13.426;2024-02-21T13:57:28;22.80;;;5.95;;
56927;SDS011;60850;52.502;13.426;2024-02-21T13:59:57;9.23;;;3.42;;
56927;SDS011;60850;52.502;13.426;2024-02-21T14:02:24;12.95;;;4.93;;
56927;SDS011;60850;52.502;13.426;2024-02-21T14:04:52;9.27;;;4.10;;
56927;SDS011;60850;52.502;13.426;2024-02-21T14:07:19;12.55;;;4.18;;
56927;SDS011;60850;52.502;13.426;2024-02-21T14:09:46;11.00;;;4.47;;
56927;SDS011;60850;52.502;13.426;2024-02-21T14:12:13;8.38;;;3.42;;
56927;SDS011;60850;52.502;13.426;2024-02-21T14:14:43;6.88;;;3.15;;
56927;SDS011;60850;52.502;13.426;2024-02-21T14:17:12;7.43;;;3.55;;
56927;SDS011;60850;52.502;13.426;2024-02-21T14:19:43;9.02;;;3.78;;
56927;SDS011;60850;52.502;13.426;2024-02-21T14:22:10;6.95;;;3.15;;
56927;SDS011;60850;52.502;13.426;2024-02-21T14:24:38;11.27;;;3.42;;
56927;SDS011;60850;52.502;13.426;2024-02-21T14:27:08;10.82;;;3.53;;